Time;durP1;ratioP1;P1;durP2;ratioP2;P2;SDS_P1;SDS_P2;PMS_P1;PMS_P2;Temp;Humidity;BMP_temperature;BMP_pressure;BME280_temperature;BME280_humidity;BME280_pressure;Samples;Min_cycle;Max_cycle;Signal;HPM_P1;HPM_P2
2022/12/11 00:00:39;;;;;;;98.85;22.55;;;;;;;;;;5064823;28;20077;-79
2022/12/11 00:03:07;;;;;;;83.47;19.75;;;;;;;;;;5079990;28;20174;-79
2022/12/11 00:05:41;;;;;;;88.93;22.40;;;;;;;;;;5082106;28;20052;-79
2022/12/11 00:08:09;;;;;;;95.75;20.50;;;;;;;;;;5078470;28;20049;-79
2022/12/11 00:10:37;;;;;;;96.55;21.40;;;;;;;;;;5063064;28;20049;-80
2022/12/11 00:13:04;;;;;;;87.07;20.42;;;;;;;;;;5089376;28;20045;-79
2022/12/11 00:15:32;;;;;;;85.88;19.13;;;;;;;;;;5083955;28;20104;-79
2022/12/11 00:17:59;;;;;;;94.55;20.67;;;;;;;;;;5069952;28;20037;-79
2022/12/11 00:20:27;;;;;;;78.20;20.27;;;;;;;;;;5079546;28;20053;-79
2022/12/11 00:22:55;;;;;;;101.30;19.83;;;;;;;;;;5082804;28;20114;-80
2022/12/11 00:25:22;;;;;;;78.20;17.73;;;;;;;;;;5080405;28;20064;-79
2022/12/11 00:27:49;;;;;;;82.75;19.65;;;;;;;;;;5080986;28;20050;-79
2022/12/11 00:30:19;;;;;;;92.60;20.05;;;;;;;;;;5079770;28;20069;-79
2022/12/11 00:32:46;;;;;;;93.28;20.05;;;;;;;;;;5083445;28;20041;-79
2022/12/11 00:35:13;;;;;;;75.13;21.00;;;;;;;;;;5094045;28;20048;-79
2022/12/11 00:37:40;;;;;;;93.68;20.00;;;;;;;;;;5092282;28;20045;-79
2022/12/11 00:40:08;;;;;;;82.35;18.77;;;;;;;;;;5083761;28;20045;-79
2022/12/11 00:42:36;;;;;;;84.28;20.65;;;;;;;;;;5083785;28;20053;-79
2022/12/11 00:45:04;;;;;;;87.22;22.52;;;;;;;;;;5080096;28;20041;-79
2022/12/11 00:47:31;;;;;;;87.32;20.73;;;;;;;;;;5084000;28;20036;-79
2022/12/11 00:49:59;;;;;;;79.32;20.75;;;;;;;;;;5073817;28;20089;-79
2022/12/11 00:52:26;;;;;;;79.47;20.33;;;;;;;;;;5077226;28;20072;-79
2022/12/11 00:54:53;;;;;;;83.18;21.48;;;;;;;;;;5082483;28;20052;-79
2022/12/11 00:57:21;;;;;;;92.55;20.17;;;;;;;;;;5076940;28;20033;-80
2022/12/11 00:59:49;;;;;;;84.05;21.00;;;;;;;;;;5083908;28;20049;-79
2022/12/11 01:02:16;;;;;;;95.47;20.48;;;;;;;;;;5074745;28;21188;-79
2022/12/11 01:04:44;;;;;;;98.28;21.60;;;;;;;;;;5088461;28;20053;-79
2022/12/11 01:07:18;;;;;;;79.30;19.02;;;;;;;;;;5083141;28;20759;-79
2022/12/11 01:12:31;;;;;;;97.00;21.65;;;;;;;;;;5066710;28;20045;-79
2022/12/11 01:14:59;;;;;;;89.88;21.73;;;;;;;;;;5071035;28;20053;-79
2022/12/11 01:17:26;;;;;;;96.35;21.10;;;;;;;;;;5046905;28;20038;-79
2022/12/11 01:19:54;;;;;;;97.72;21.35;;;;;;;;;;5069502;28;20049;-79
2022/12/11 01:22:24;;;;;;;110.07;21.45;;;;;;;;;;5053833;28;20192;-79
2022/12/11 01:24:54;;;;;;;102.90;21.90;;;;;;;;;;5062971;28;20046;-79
2022/12/11 01:27:22;;;;;;;108.20;23.05;;;;;;;;;;5068170;28;20081;-79
2022/12/11 01:29:54;;;;;;;118.90;22.60;;;;;;;;;;5061638;28;20042;-79
2022/12/11 01:32:26;;;;;;;112.70;23.23;;;;;;;;;;5071727;28;20059;-79
2022/12/11 01:34:53;;;;;;;106.90;21.83;;;;;;;;;;5065277;28;20038;-79
2022/12/11 01:37:21;;;;;;;123.20;23.95;;;;;;;;;;5069928;28;20132;-79
2022/12/11 01:39:53;;;;;;;119.63;21.85;;;;;;;;;;5065184;28;20065;-80
2022/12/11 01:42:21;;;;;;;115.35;22.88;;;;;;;;;;5062635;28;20139;-79
2022/12/11 01:44:48;;;;;;;106.88;22.75;;;;;;;;;;5065697;28;20171;-79
2022/12/11 01:47:16;;;;;;;102.57;21.55;;;;;;;;;;5070637;28;20049;-79
2022/12/11 01:49:43;;;;;;;101.65;21.92;;;;;;;;;;5069391;28;20100;-79
2022/12/11 01:52:14;;;;;;;93.75;22.85;;;;;;;;;;5066901;28;20061;-79
2022/12/11 01:54:43;;;;;;;130.60;22.33;;;;;;;;;;5069681;28;20123;-79
2022/12/11 01:57:11;;;;;;;115.82;23.85;;;;;;;;;;5070631;28;20084;-80
2022/12/11 01:59:40;;;;;;;117.93;22.38;;;;;;;;;;5065449;28;20105;-79
2022/12/11 02:02:11;;;;;;;104.45;23.02;;;;;;;;;;5051921;28;20053;-79
2022/12/11 02:04:39;;;;;;;83.03;22.73;;;;;;;;;;5068383;28;20067;-79
2022/12/11 02:07:07;;;;;;;87.88;23.17;;;;;;;;;;5062256;28;20129;-79
2022/12/11 02:09:35;;;;;;;90.22;22.55;;;;;;;;;;5063886;28;20050;-79
2022/12/11 02:12:06;;;;;;;77.45;21.67;;;;;;;;;;5062682;28;20057;-79
2022/12/11 02:14:47;;;;;;;97.50;21.38;;;;;;;;;;5059012;28;20060;-79
2022/12/11 02:17:16;;;;;;;104.72;22.52;;;;;;;;;;5064272;28;20040;-79
2022/12/11 02:19:48;;;;;;;89.93;22.85;;;;;;;;;;5063023;28;20072;-79
2022/12/11 02:22:24;;;;;;;103.45;23.13;;;;;;;;;;5061375;28;20235;-79
2022/12/11 02:25:09;;;;;;;89.90;22.45;;;;;;;;;;5064854;28;20652;-79
2022/12/11 02:27:40;;;;;;;78.65;20.88;;;;;;;;;;5051696;28;20038;-79
2022/12/11 02:30:10;;;;;;;90.13;22.67;;;;;;;;;;5061530;28;20053;-79
2022/12/11 02:32:45;;;;;;;85.05;21.98;;;;;;;;;;5061254;28;20080;-79
2022/12/11 02:35:16;;;;;;;73.15;20.73;;;;;;;;;;5062404;28;20053;-79
2022/12/11 02:37:46;;;;;;;97.93;23.67;;;;;;;;;;5060093;28;20049;-80
2022/12/11 02:40:16;;;;;;;65.93;20.77;;;;;;;;;;5062840;28;20065;-79
2022/12/11 02:42:46;;;;;;;81.55;23.02;;;;;;;;;;5062130;28;20045;-79
2022/12/11 02:45:14;;;;;;;76.80;21.60;;;;;;;;;;5063254;28;20053;-79
2022/12/11 02:47:44;;;;;;;82.82;22.17;;;;;;;;;;5058790;28;20049;-79
2022/12/11 02:50:13;;;;;;;81.40;22.63;;;;;;;;;;5068181;28;20216;-79
2022/12/11 02:52:42;;;;;;;73.40;21.05;;;;;;;;;;5062231;28;20060;-79
2022/12/11 02:55:10;;;;;;;80.80;21.95;;;;;;;;;;5062419;28;20083;-79
2022/12/11 02:57:52;;;;;;;68.45;20.70;;;;;;;;;;5054975;28;20049;-79
2022/12/11 03:00:22;;;;;;;60.20;21.15;;;;;;;;;;5046095;28;20053;-79
2022/12/11 03:02:49;;;;;;;63.65;20.48;;;;;;;;;;5062728;28;20087;-79
2022/12/11 03:05:17;;;;;;;82.78;20.00;;;;;;;;;;5063041;28;20097;-79
2022/12/11 03:07:44;;;;;;;60.45;20.38;;;;;;;;;;5063047;28;20038;-79
2022/12/11 03:10:13;;;;;;;68.97;20.92;;;;;;;;;;5057017;28;20054;-79
2022/12/11 03:12:43;;;;;;;70.32;20.88;;;;;;;;;;5062933;28;20055;-79
2022/12/11 03:15:18;;;;;;;68.30;21.60;;;;;;;;;;5059650;28;20049;-79
2022/12/11 03:17:56;;;;;;;64.45;19.70;;;;;;;;;;5061777;28;20041;-79
2022/12/11 03:20:34;;;;;;;55.78;20.02;;;;;;;;;;5058550;28;20124;-79
2022/12/11 03:23:06;;;;;;;63.67;21.05;;;;;;;;;;5068888;28;20049;-79
2022/12/11 03:25:37;;;;;;;68.00;21.60;;;;;;;;;;5046421;28;20069;-79
2022/12/11 03:28:10;;;;;;;60.53;22.35;;;;;;;;;;5047933;28;20029;-79
2022/12/11 03:30:38;;;;;;;65.38;22.25;;;;;;;;;;5061227;28;20057;-79
2022/12/11 03:33:11;;;;;;;60.15;20.90;;;;;;;;;;5057394;28;20045;-79
2022/12/11 03:35:40;;;;;;;56.50;21.37;;;;;;;;;;5063398;28;20033;-79
2022/12/11 03:38:09;;;;;;;66.07;20.45;;;;;;;;;;5059845;28;21103;-79
2022/12/11 03:40:39;;;;;;;59.30;20.38;;;;;;;;;;5063399;28;20045;-79
2022/12/11 03:43:06;;;;;;;53.63;20.90;;;;;;;;;;5067217;28;20877;-79
2022/12/11 03:45:35;;;;;;;53.40;21.23;;;;;;;;;;5060900;28;20515;-79
2022/12/11 03:48:02;;;;;;;53.40;20.08;;;;;;;;;;5067408;28;20050;-79
2022/12/11 03:50:31;;;;;;;31.13;13.68;;;;;;;;;;5039892;28;20050;-80
2022/12/11 03:53:00;;;;;;;41.60;17.80;;;;;;;;;;5056449;28;20113;-79
2022/12/11 03:55:28;;;;;;;43.63;17.83;;;;;;;;;;5045625;28;20660;-79
2022/12/11 03:57:55;;;;;;;40.90;17.55;;;;;;;;;;5059816;28;20060;-79
2022/12/11 04:00:22;;;;;;;42.08;17.73;;;;;;;;;;5058896;28;20049;-79
2022/12/11 04:05:40;;;;;;;37.97;17.08;;;;;;;;;;5060102;28;20068;-79
2022/12/11 04:08:08;;;;;;;43.47;18.40;;;;;;;;;;5063850;28;20041;-79
2022/12/11 04:10:35;;;;;;;39.13;17.42;;;;;;;;;;5065527;28;20052;-79
2022/12/11 04:13:03;;;;;;;37.92;15.40;;;;;;;;;;5062897;28;20133;-79
2022/12/11 04:15:30;;;;;;;39.35;16.58;;;;;;;;;;5069951;28;20041;-79
2022/12/11 04:26:18;;;;;;;32.47;14.70;;;;;;;;;;5067172;28;20065;-79
2022/12/11 04:28:46;;;;;;;32.58;16.00;;;;;;;;;;5061852;28;20030;-80
2022/12/11 04:31:14;;;;;;;30.00;14.23;;;;;;;;;;5062515;28;20084;-79
2022/12/11 04:33:42;;;;;;;31.02;14.98;;;;;;;;;;5066968;28;20062;-79
2022/12/11 04:36:10;;;;;;;31.58;14.80;;;;;;;;;;5060117;28;20068;-79
2022/12/11 04:38:38;;;;;;;33.10;15.32;;;;;;;;;;5062840;28;20030;-80
2022/12/11 04:41:06;;;;;;;31.25;15.63;;;;;;;;;;5069154;28;20063;-79
2022/12/11 04:43:34;;;;;;;30.73;14.80;;;;;;;;;;5061055;28;20101;-80
2022/12/11 04:46:10;;;;;;;32.83;14.90;;;;;;;;;;5063084;28;20038;-79
2022/12/11 04:48:38;;;;;;;31.73;14.20;;;;;;;;;;5064134;28;20053;-79
2022/12/11 04:51:06;;;;;;;37.28;14.98;;;;;;;;;;5061150;28;20057;-79
2022/12/11 04:53:33;;;;;;;35.95;16.17;;;;;;;;;;5070499;28;20107;-80
2022/12/11 04:56:01;;;;;;;36.88;16.83;;;;;;;;;;5061910;28;20053;-79
2022/12/11 04:58:29;;;;;;;31.70;16.02;;;;;;;;;;5042294;28;20064;-79
2022/12/11 05:00:56;;;;;;;33.90;16.33;;;;;;;;;;5069381;28;20049;-79
2022/12/11 05:03:23;;;;;;;37.67;16.30;;;;;;;;;;5064614;28;20049;-80
2022/12/11 05:05:52;;;;;;;33.58;15.57;;;;;;;;;;5061657;28;20052;-79
2022/12/11 05:08:20;;;;;;;33.85;16.10;;;;;;;;;;5060774;28;20037;-79
2022/12/11 05:11:01;;;;;;;36.50;15.90;;;;;;;;;;5066274;28;20045;-79
2022/12/11 05:13:28;;;;;;;32.83;15.48;;;;;;;;;;5057772;28;20054;-80
2022/12/11 05:15:55;;;;;;;33.65;15.68;;;;;;;;;;5059989;28;20034;-79
2022/12/11 05:18:23;;;;;;;32.42;15.60;;;;;;;;;;5060790;28;20049;-79
2022/12/11 05:20:55;;;;;;;32.50;14.95;;;;;;;;;;5064335;28;20901;-79
2022/12/11 05:23:25;;;;;;;29.33;15.18;;;;;;;;;;5058804;28;20045;-79
2022/12/11 05:25:56;;;;;;;34.88;15.98;;;;;;;;;;5046858;28;20037;-79
2022/12/11 05:28:24;;;;;;;33.97;15.05;;;;;;;;;;5063053;28;20140;-79
2022/12/11 05:30:58;;;;;;;31.58;15.20;;;;;;;;;;5059450;28;20052;-79
2022/12/11 05:33:26;;;;;;;35.40;15.40;;;;;;;;;;5038912;28;20045;-79
2022/12/11 05:35:53;;;;;;;35.45;15.68;;;;;;;;;;5059619;28;20037;-79
2022/12/11 05:38:21;;;;;;;35.97;15.80;;;;;;;;;;5063456;28;20105;-79
2022/12/11 05:40:57;;;;;;;30.70;15.18;;;;;;;;;;5074232;28;20049;-79
2022/12/11 05:43:26;;;;;;;32.47;15.77;;;;;;;;;;5068187;28;20042;-79
2022/12/11 05:45:53;;;;;;;29.23;14.60;;;;;;;;;;5066846;28;20064;-79
2022/12/11 05:48:20;;;;;;;34.70;15.10;;;;;;;;;;5058409;28;20061;-79
2022/12/11 05:50:58;;;;;;;35.17;15.45;;;;;;;;;;5066137;28;20038;-79
2022/12/11 05:53:26;;;;;;;30.52;15.02;;;;;;;;;;5068251;28;20041;-79
2022/12/11 05:55:54;;;;;;;30.75;15.00;;;;;;;;;;5067925;28;20037;-79
2022/12/11 05:58:21;;;;;;;36.35;15.43;;;;;;;;;;5069669;28;20867;-79
2022/12/11 06:00:48;;;;;;;28.50;14.50;;;;;;;;;;5072318;28;20037;-79
2022/12/11 06:03:16;;;;;;;36.35;15.95;;;;;;;;;;5053112;28;20061;-79
2022/12/11 06:05:43;;;;;;;32.00;16.08;;;;;;;;;;5048386;28;20045;-79
2022/12/11 06:08:11;;;;;;;38.83;16.75;;;;;;;;;;5061584;28;20061;-79
2022/12/11 06:10:44;;;;;;;34.03;16.55;;;;;;;;;;5065211;28;20042;-79
2022/12/11 06:13:12;;;;;;;35.70;15.27;;;;;;;;;;5063081;28;20919;-79
2022/12/11 06:15:39;;;;;;;38.90;15.52;;;;;;;;;;5063650;28;20080;-79
2022/12/11 06:18:06;;;;;;;34.60;16.20;;;;;;;;;;5067968;28;20053;-79
2022/12/11 06:20:34;;;;;;;32.65;15.48;;;;;;;;;;5068302;28;20883;-79
2022/12/11 06:23:02;;;;;;;33.08;16.27;;;;;;;;;;5074427;28;20067;-79
2022/12/11 06:25:30;;;;;;;35.25;16.83;;;;;;;;;;5063025;28;20057;-79
2022/12/11 06:27:58;;;;;;;39.05;16.65;;;;;;;;;;5067078;28;20030;-79
2022/12/11 06:30:25;;;;;;;36.17;15.88;;;;;;;;;;5053796;28;20055;-79
2022/12/11 06:33:05;;;;;;;35.20;16.17;;;;;;;;;;5053579;28;20068;-79
2022/12/11 06:35:33;;;;;;;35.15;16.30;;;;;;;;;;5060939;28;21972;-79
2022/12/11 06:38:08;;;;;;;38.42;16.80;;;;;;;;;;5057627;28;20052;-79
2022/12/11 06:40:35;;;;;;;40.20;18.60;;;;;;;;;;5060704;28;20097;-79
2022/12/11 06:43:03;;;;;;;41.55;16.55;;;;;;;;;;5055643;28;20947;-79
2022/12/11 06:45:30;;;;;;;39.00;18.10;;;;;;;;;;5069689;28;20040;-79
2022/12/11 06:47:58;;;;;;;39.60;17.88;;;;;;;;;;5058071;28;20046;-79
2022/12/11 06:50:25;;;;;;;37.70;17.42;;;;;;;;;;5034008;28;20061;-79
2022/12/11 06:52:56;;;;;;;33.22;15.60;;;;;;;;;;5060425;28;20068;-79
2022/12/11 06:55:26;;;;;;;39.28;18.20;;;;;;;;;;5060901;28;20128;-79
2022/12/11 06:57:53;;;;;;;37.50;17.73;;;;;;;;;;5065938;28;20057;-79
2022/12/11 07:00:20;;;;;;;41.42;17.80;;;;;;;;;;5062367;28;20050;-79
2022/12/11 07:02:50;;;;;;;41.17;18.83;;;;;;;;;;5055592;28;20059;-79
2022/12/11 07:05:20;;;;;;;41.70;17.33;;;;;;;;;;5060901;28;20075;-79
2022/12/11 07:07:47;;;;;;;42.20;18.65;;;;;;;;;;5056310;28;20845;-79
2022/12/11 07:10:15;;;;;;;40.10;17.25;;;;;;;;;;5060265;28;20055;-79
2022/12/11 07:12:42;;;;;;;41.92;18.05;;;;;;;;;;5058523;28;20074;-79
2022/12/11 07:15:10;;;;;;;43.90;17.83;;;;;;;;;;5062242;28;20049;-79
2022/12/11 07:17:37;;;;;;;39.95;17.20;;;;;;;;;;5069608;28;20022;-79
2022/12/11 07:20:04;;;;;;;40.90;16.90;;;;;;;;;;5044442;28;20347;-79
2022/12/11 07:22:32;;;;;;;36.22;17.33;;;;;;;;;;5060684;28;20152;-79
2022/12/11 07:24:59;;;;;;;38.50;18.27;;;;;;;;;;5057741;28;20140;-79
2022/12/11 07:27:29;;;;;;;36.05;18.00;;;;;;;;;;5055455;28;20871;-79
2022/12/11 07:30:09;;;;;;;34.60;17.88;;;;;;;;;;5057617;28;20484;-80
2022/12/11 07:32:37;;;;;;;35.08;17.13;;;;;;;;;;5055067;28;20064;-79
2022/12/11 07:35:04;;;;;;;37.17;17.58;;;;;;;;;;5043459;28;20889;-79
2022/12/11 07:37:34;;;;;;;34.95;17.55;;;;;;;;;;5058870;28;20037;-79
2022/12/11 07:40:01;;;;;;;38.17;18.67;;;;;;;;;;5059903;28;20049;-79
2022/12/11 07:42:29;;;;;;;37.63;18.33;;;;;;;;;;5057052;28;20088;-79
2022/12/11 07:44:56;;;;;;;37.55;18.02;;;;;;;;;;5042303;28;20101;-79
2022/12/11 07:47:24;;;;;;;36.60;18.83;;;;;;;;;;5047390;28;20059;-80
2022/12/11 07:49:54;;;;;;;36.53;18.13;;;;;;;;;;5055134;28;20049;-79
2022/12/11 07:52:22;;;;;;;41.83;18.63;;;;;;;;;;5058799;28;20784;-79
2022/12/11 07:54:49;;;;;;;36.45;18.42;;;;;;;;;;5060621;28;20096;-79
2022/12/11 07:57:24;;;;;;;35.88;18.20;;;;;;;;;;5060620;28;20052;-79
2022/12/11 07:59:51;;;;;;;38.53;17.83;;;;;;;;;;5061239;28;20057;-79
2022/12/11 08:02:29;;;;;;;38.10;18.77;;;;;;;;;;5063654;28;20064;-79
2022/12/11 08:05:03;;;;;;;40.35;19.02;;;;;;;;;;5061095;28;20049;-80
2022/12/11 08:07:36;;;;;;;46.00;20.48;;;;;;;;;;5064531;28;20065;-79
2022/12/11 08:10:06;;;;;;;43.03;19.67;;;;;;;;;;5062267;28;20045;-79
2022/12/11 08:12:37;;;;;;;41.65;20.48;;;;;;;;;;5060098;28;20054;-80
2022/12/11 08:15:13;;;;;;;38.42;19.45;;;;;;;;;;5057597;28;20077;-79
2022/12/11 08:17:41;;;;;;;37.17;18.67;;;;;;;;;;5050437;28;20033;-80
2022/12/11 08:20:10;;;;;;;38.20;20.15;;;;;;;;;;5067210;28;20053;-80
2022/12/11 08:22:37;;;;;;;44.00;19.40;;;;;;;;;;5076437;28;20061;-80
2022/12/11 08:25:11;;;;;;;37.30;17.70;;;;;;;;;;5072231;28;20053;-79
2022/12/11 08:27:48;;;;;;;34.40;18.33;;;;;;;;;;5072602;28;20046;-80
2022/12/11 08:30:17;;;;;;;35.25;17.00;;;;;;;;;;5047942;28;20050;-80
2022/12/11 08:33:00;;;;;;;37.38;17.15;;;;;;;;;;5068716;28;20038;-80
2022/12/11 08:35:31;;;;;;;29.35;15.63;;;;;;;;;;5071880;28;20063;-80
2022/12/11 08:37:58;;;;;;;33.72;15.68;;;;;;;;;;5057945;28;20042;-80
2022/12/11 08:40:26;;;;;;;31.33;14.48;;;;;;;;;;5066863;28;20105;-79
2022/12/11 08:42:59;;;;;;;31.88;14.93;;;;;;;;;;5054562;28;20101;-80
2022/12/11 08:45:29;;;;;;;31.42;15.10;;;;;;;;;;5070287;28;20511;-80
2022/12/11 08:47:57;;;;;;;26.88;13.80;;;;;;;;;;5051399;28;20025;-80
2022/12/11 08:50:28;;;;;;;27.35;14.18;;;;;;;;;;5057496;28;20051;-80
2022/12/11 08:52:57;;;;;;;33.50;14.98;;;;;;;;;;5051006;28;20042;-80
2022/12/11 08:55:24;;;;;;;33.95;15.05;;;;;;;;;;5043444;28;20066;-80
2022/12/11 08:57:56;;;;;;;27.30;14.75;;;;;;;;;;5053194;28;20042;-80
2022/12/11 09:00:28;;;;;;;32.97;16.38;;;;;;;;;;5067829;28;20076;-80
2022/12/11 09:02:55;;;;;;;33.63;16.00;;;;;;;;;;5072165;28;20634;-80
2022/12/11 09:05:24;;;;;;;29.98;15.38;;;;;;;;;;5072883;28;20049;-80
2022/12/11 09:07:57;;;;;;;28.13;15.80;;;;;;;;;;5055341;28;20061;-79
2022/12/11 09:10:26;;;;;;;33.03;15.50;;;;;;;;;;5067091;28;20053;-80
2022/12/11 09:13:05;;;;;;;31.40;15.07;;;;;;;;;;5064369;28;20063;-80
2022/12/11 09:15:38;;;;;;;34.08;15.07;;;;;;;;;;5076445;28;20048;-79
2022/12/11 09:18:14;;;;;;;34.60;15.63;;;;;;;;;;5054350;28;20044;-79
2022/12/11 09:21:05;;;;;;;29.38;15.05;;;;;;;;;;5067643;28;20619;-79
2022/12/11 09:23:34;;;;;;;32.85;15.43;;;;;;;;;;5069292;28;20113;-79
2022/12/11 09:26:05;;;;;;;33.00;15.85;;;;;;;;;;5068763;28;20092;-79
2022/12/11 09:28:43;;;;;;;32.13;15.93;;;;;;;;;;5070058;28;20038;-79
2022/12/11 09:31:19;;;;;;;32.13;15.52;;;;;;;;;;5057624;28;20046;-79
2022/12/11 09:33:55;;;;;;;30.90;15.70;;;;;;;;;;5047467;28;20049;-79
2022/12/11 09:36:23;;;;;;;31.40;15.18;;;;;;;;;;5051625;28;20045;-79
2022/12/11 09:38:50;;;;;;;30.35;15.95;;;;;;;;;;5065882;28;20050;-79
2022/12/11 09:41:25;;;;;;;32.67;16.80;;;;;;;;;;5069180;28;20573;-80
2022/12/11 09:44:12;;;;;;;35.88;16.77;;;;;;;;;;5055899;28;20051;-79
2022/12/11 09:46:40;;;;;;;30.50;16.55;;;;;;;;;;5052469;28;20068;-79
2022/12/11 09:49:28;;;;;;;29.42;16.02;;;;;;;;;;5068484;28;20818;-79
2022/12/11 09:52:08;;;;;;;33.53;16.58;;;;;;;;;;5067410;28;20049;-80
2022/12/11 09:54:36;;;;;;;34.20;16.73;;;;;;;;;;5054956;28;20042;-79
2022/12/11 09:57:14;;;;;;;36.05;18.77;;;;;;;;;;5069535;28;20910;-80
2022/12/11 09:59:49;;;;;;;29.58;15.73;;;;;;;;;;5070739;28;20049;-79
2022/12/11 10:02:35;;;;;;;31.30;15.65;;;;;;;;;;5054625;28;20049;-79
2022/12/11 10:05:21;;;;;;;35.40;16.63;;;;;;;;;;5073435;28;20057;-79
2022/12/11 10:08:07;;;;;;;33.28;16.42;;;;;;;;;;5076369;28;20102;-79
2022/12/11 10:10:44;;;;;;;33.67;17.02;;;;;;;;;;5071886;28;20133;-79
2022/12/11 10:13:41;;;;;;;32.40;15.57;;;;;;;;;;5050322;28;20049;-79
2022/12/11 10:16:09;;;;;;;29.02;14.90;;;;;;;;;;5059134;28;20049;-79
2022/12/11 10:18:38;;;;;;;38.03;15.52;;;;;;;;;;5068267;28;20060;-79
2022/12/11 10:21:07;;;;;;;31.58;15.52;;;;;;;;;;5071198;28;20323;-78
2022/12/11 10:23:58;;;;;;;31.17;15.82;;;;;;;;;;5062953;28;20042;-79
2022/12/11 10:26:30;;;;;;;24.00;14.68;;;;;;;;;;5058971;28;20077;-78
2022/12/11 10:29:00;;;;;;;33.28;15.13;;;;;;;;;;5041128;28;20050;-80
2022/12/11 10:31:45;;;;;;;31.95;15.73;;;;;;;;;;5061724;28;20145;-79
2022/12/11 10:34:14;;;;;;;27.17;14.70;;;;;;;;;;5062722;28;20061;-78
2022/12/11 10:36:45;;;;;;;29.20;14.88;;;;;;;;;;5062824;28;20057;-79
2022/12/11 10:39:24;;;;;;;25.70;13.65;;;;;;;;;;5061786;28;20113;-78
2022/12/11 10:41:53;;;;;;;31.15;13.90;;;;;;;;;;5061695;28;20045;-78
2022/12/11 10:44:20;;;;;;;30.42;15.25;;;;;;;;;;5059730;28;20058;-78
2022/12/11 10:47:02;;;;;;;27.52;13.40;;;;;;;;;;5061203;28;20045;-79
2022/12/11 10:49:31;;;;;;;24.90;13.57;;;;;;;;;;5060745;28;20048;-79
2022/12/11 10:52:05;;;;;;;27.48;13.70;;;;;;;;;;5065840;28;20050;-78
2022/12/11 10:54:36;;;;;;;26.05;13.27;;;;;;;;;;5063297;28;20049;-79
2022/12/11 10:57:04;;;;;;;24.50;12.82;;;;;;;;;;5065811;28;20049;-79
2022/12/11 10:59:34;;;;;;;24.13;12.25;;;;;;;;;;5052996;28;20064;-79
2022/12/11 11:02:18;;;;;;;25.30;12.60;;;;;;;;;;5062536;28;20774;-79
2022/12/11 11:05:06;;;;;;;23.65;12.30;;;;;;;;;;5067444;28;20149;-78
2022/12/11 11:07:37;;;;;;;26.77;13.20;;;;;;;;;;5058490;28;20053;-79
2022/12/11 11:10:05;;;;;;;25.38;12.50;;;;;;;;;;5065994;28;20034;-78
2022/12/11 11:12:37;;;;;;;25.92;12.82;;;;;;;;;;5073950;28;20136;-78
2022/12/11 11:15:07;;;;;;;27.42;12.55;;;;;;;;;;5064041;28;20042;-79
2022/12/11 11:17:41;;;;;;;24.92;12.15;;;;;;;;;;5070484;28;20101;-79
2022/12/11 11:20:22;;;;;;;26.48;12.38;;;;;;;;;;5057986;28;20049;-78
2022/12/11 11:22:52;;;;;;;23.55;11.55;;;;;;;;;;5045389;28;20161;-78
2022/12/11 11:25:24;;;;;;;28.35;13.32;;;;;;;;;;5064284;28;20151;-78
2022/12/11 11:27:54;;;;;;;24.80;12.18;;;;;;;;;;5066730;28;20061;-78
2022/12/11 11:30:24;;;;;;;24.20;12.38;;;;;;;;;;5063456;28;20046;-79
2022/12/11 11:33:00;;;;;;;24.92;12.30;;;;;;;;;;5066188;28;20037;-78
2022/12/11 11:35:29;;;;;;;21.55;11.60;;;;;;;;;;5061780;28;20045;-79
2022/12/11 11:38:09;;;;;;;24.05;11.38;;;;;;;;;;5050964;28;20053;-79
2022/12/11 11:40:44;;;;;;;26.20;12.32;;;;;;;;;;5061676;28;20076;-79
2022/12/11 11:43:28;;;;;;;26.77;12.48;;;;;;;;;;5065585;28;20057;-78
2022/12/11 11:46:18;;;;;;;26.92;12.20;;;;;;;;;;5060763;28;20049;-79
2022/12/11 11:49:09;;;;;;;23.13;11.45;;;;;;;;;;5047629;28;20050;-78
2022/12/11 11:51:39;;;;;;;23.10;11.57;;;;;;;;;;5056292;28;20046;-80
2022/12/11 11:54:20;;;;;;;24.95;11.98;;;;;;;;;;5068343;28;20054;-78
2022/12/11 11:57:05;;;;;;;22.90;11.60;;;;;;;;;;5058468;28;20060;-78
2022/12/11 11:59:55;;;;;;;23.98;11.75;;;;;;;;;;5059329;28;20054;-78
2022/12/11 12:02:27;;;;;;;20.60;10.98;;;;;;;;;;5064830;28;20046;-79
2022/12/11 12:04:58;;;;;;;25.23;11.57;;;;;;;;;;5053458;28;20107;-79
2022/12/11 12:07:38;;;;;;;23.60;11.80;;;;;;;;;;5052651;28;20590;-79
2022/12/11 12:10:25;;;;;;;24.02;12.10;;;;;;;;;;5043887;28;20049;-78
2022/12/11 12:13:18;;;;;;;20.58;10.85;;;;;;;;;;5062275;28;20053;-78
2022/12/11 12:16:10;;;;;;;26.50;11.93;;;;;;;;;;5020779;28;20064;-78
2022/12/11 12:19:12;;;;;;;25.40;12.05;;;;;;;;;;4999518;28;20057;-78
2022/12/11 12:21:43;;;;;;;23.63;12.05;;;;;;;;;;5018194;28;20112;-78
2022/12/11 12:24:26;;;;;;;21.83;11.63;;;;;;;;;;5020586;28;20066;-78
2022/12/11 12:26:58;;;;;;;21.05;11.23;;;;;;;;;;5022429;28;20069;-78
2022/12/11 12:29:25;;;;;;;24.65;11.73;;;;;;;;;;5006899;28;20066;-78
2022/12/11 12:31:59;;;;;;;21.73;11.52;;;;;;;;;;5026361;28;20081;-78
2022/12/11 12:34:42;;;;;;;22.35;11.68;;;;;;;;;;5024685;28;20202;-78
2022/12/11 12:37:12;;;;;;;24.55;12.07;;;;;;;;;;5032669;28;20050;-78
2022/12/11 12:39:45;;;;;;;24.88;11.10;;;;;;;;;;5027660;28;20910;-78
2022/12/11 12:42:20;;;;;;;23.30;11.55;;;;;;;;;;5022431;28;20916;-79
2022/12/11 12:44:58;;;;;;;28.08;12.63;;;;;;;;;;5026632;28;20074;-78
2022/12/11 12:47:27;;;;;;;28.40;12.70;;;;;;;;;;5032415;28;20064;-79
2022/12/11 12:49:56;;;;;;;26.92;12.32;;;;;;;;;;5020869;28;20046;-79
2022/12/11 12:52:30;;;;;;;24.25;12.35;;;;;;;;;;5031198;28;20054;-79
2022/12/11 12:55:21;;;;;;;29.50;12.45;;;;;;;;;;5019218;28;20050;-79
2022/12/11 12:57:54;;;;;;;31.40;14.15;;;;;;;;;;5027676;28;20062;-79
2022/12/11 13:00:27;;;;;;;24.42;11.68;;;;;;;;;;5021099;28;20129;-79
2022/12/11 13:02:55;;;;;;;32.15;14.25;;;;;;;;;;5028298;28;20042;-79
2022/12/11 13:05:35;;;;;;;28.48;13.10;;;;;;;;;;5038284;28;20046;-79
2022/12/11 13:08:04;;;;;;;27.35;13.73;;;;;;;;;;5026657;28;20117;-79
2022/12/11 13:10:32;;;;;;;27.58;13.45;;;;;;;;;;5022592;28;20049;-79
2022/12/11 13:13:00;;;;;;;28.40;13.98;;;;;;;;;;5017121;28;20055;-79
2022/12/11 13:15:31;;;;;;;30.83;13.43;;;;;;;;;;5021990;28;20068;-79
2022/12/11 13:18:02;;;;;;;29.50;13.80;;;;;;;;;;5023702;28;20073;-79
2022/12/11 13:20:32;;;;;;;28.95;13.35;;;;;;;;;;5036768;28;20046;-79
2022/12/11 13:23:05;;;;;;;29.88;13.68;;;;;;;;;;5039150;28;20740;-79
2022/12/11 13:25:45;;;;;;;30.10;13.63;;;;;;;;;;5066390;28;20100;-78
2022/12/11 13:28:39;;;;;;;33.05;14.50;;;;;;;;;;5067399;28;20041;-79
2022/12/11 13:31:16;;;;;;;33.40;14.77;;;;;;;;;;5067712;28;20060;-79
2022/12/11 13:33:54;;;;;;;29.17;13.95;;;;;;;;;;5061941;28;20045;-79
2022/12/11 13:36:36;;;;;;;34.63;15.43;;;;;;;;;;5062566;28;20980;-78
2022/12/11 13:39:16;;;;;;;33.55;15.35;;;;;;;;;;5063234;28;20057;-79
2022/12/11 13:41:45;;;;;;;30.17;14.07;;;;;;;;;;5055385;28;20049;-79
2022/12/11 13:44:19;;;;;;;35.58;15.68;;;;;;;;;;5061210;28;20092;-79
2022/12/11 13:46:47;;;;;;;32.20;14.70;;;;;;;;;;5063237;28;20050;-78
2022/12/11 13:49:34;;;;;;;29.67;14.50;;;;;;;;;;5046605;28;20050;-79
2022/12/11 13:52:03;;;;;;;34.00;15.55;;;;;;;;;;5054257;28;20045;-79
2022/12/11 13:54:31;;;;;;;35.72;15.07;;;;;;;;;;5058986;28;20076;-79
2022/12/11 13:57:15;;;;;;;30.45;14.45;;;;;;;;;;5064382;28;20045;-79
2022/12/11 13:59:47;;;;;;;38.15;14.60;;;;;;;;;;5071524;28;20037;-79
2022/12/11 14:02:25;;;;;;;35.30;14.40;;;;;;;;;;5045918;28;20045;-79
2022/12/11 14:05:14;;;;;;;31.73;15.07;;;;;;;;;;5060398;28;20069;-79
2022/12/11 14:07:49;;;;;;;34.13;15.32;;;;;;;;;;5057189;28;20071;-78
2022/12/11 14:10:22;;;;;;;30.67;14.63;;;;;;;;;;5062044;28;20088;-79
2022/12/11 14:12:53;;;;;;;31.30;14.35;;;;;;;;;;5062968;28;20049;-79
2022/12/11 14:15:21;;;;;;;33.92;15.65;;;;;;;;;;5049547;28;20054;-79
2022/12/11 14:17:48;;;;;;;33.78;15.93;;;;;;;;;;5054735;28;20098;-79
2022/12/11 14:20:27;;;;;;;29.30;14.27;;;;;;;;;;5054484;28;20060;-79
2022/12/11 14:23:08;;;;;;;33.92;14.55;;;;;;;;;;5061757;28;20056;-79
2022/12/11 14:25:35;;;;;;;39.78;15.88;;;;;;;;;;5061100;28;20041;-79
2022/12/11 14:28:06;;;;;;;38.10;16.40;;;;;;;;;;5063911;28;20041;-79
2022/12/11 14:30:35;;;;;;;36.58;14.82;;;;;;;;;;5063577;28;20879;-79
2022/12/11 14:33:04;;;;;;;32.38;14.25;;;;;;;;;;5060353;28;20041;-78
2022/12/11 14:35:35;;;;;;;38.83;15.85;;;;;;;;;;5040533;28;20058;-79
2022/12/11 14:38:11;;;;;;;37.42;16.05;;;;;;;;;;5058212;28;20061;-78
2022/12/11 14:40:43;;;;;;;35.70;14.93;;;;;;;;;;5043627;28;20140;-79
2022/12/11 14:43:30;;;;;;;32.03;15.18;;;;;;;;;;5063721;28;20049;-78
2022/12/11 14:46:00;;;;;;;32.72;15.27;;;;;;;;;;5058400;28;20054;-78
2022/12/11 14:48:30;;;;;;;32.50;14.48;;;;;;;;;;5066630;28;20057;-79
2022/12/11 14:50:59;;;;;;;33.10;14.80;;;;;;;;;;5060130;28;20053;-79
2022/12/11 14:53:36;;;;;;;41.42;15.88;;;;;;;;;;5064475;28;20054;-79
2022/12/11 14:56:16;;;;;;;36.25;15.52;;;;;;;;;;5059455;28;20046;-79